sensor_id;sensor_type;location;lat;lon;timestamp;pressure;altitude;pressure_sealevel;temperature;humidity
63837;BME280;49991;50.518;30.486;2022-08-04T00:01:14;99930.66;;;22.61;67.22
63837;BME280;49991;50.518;30.486;2022-08-04T00:03:51;99930.47;;;22.64;66.82
63837;BME280;49991;50.518;30.486;2022-08-04T00:06:25;99933.31;;;22.61;66.77
63837;BME280;49991;50.518;30.486;2022-08-04T00:09:02;99931.31;;;22.65;66.53
63837;BME280;49991;50.518;30.486;2022-08-04T00:11:32;99932.00;;;22.68;66.87
63837;BME280;49991;50.518;30.486;2022-08-04T00:14:02;99936.31;;;22.71;66.21
63837;BME280;49991;50.518;30.486;2022-08-04T00:16:31;99936.16;;;22.58;66.46
63837;BME280;49991;50.518;30.486;2022-08-04T00:19:01;99932.38;;;22.62;66.70
63837;BME280;49991;50.518;30.486;2022-08-04T00:21:30;99934.44;;;22.57;66.65
63837;BME280;49991;50.518;30.486;2022-08-04T00:24:02;99934.44;;;22.57;66.47
63837;BME280;49991;50.518;30.486;2022-08-04T00:26:30;99925.88;;;22.52;66.62
63837;BME280;49991;50.518;30.486;2022-08-04T00:28:57;99935.19;;;22.59;66.67
63837;BME280;49991;50.518;30.486;2022-08-04T00:31:25;99928.94;;;22.60;66.78
63837;BME280;49991;50.518;30.486;2022-08-04T00:33:53;99937.56;;;22.64;66.67
63837;BME280;49991;50.518;30.486;2022-08-04T00:36:21;99933.31;;;22.61;66.30
63837;BME280;49991;50.518;30.486;2022-08-04T00:38:48;99936.16;;;22.58;66.88
63837;BME280;49991;50.518;30.486;2022-08-04T00:41:21;99944.69;;;22.63;66.74
63837;BME280;49991;50.518;30.486;2022-08-04T00:44:08;99935.78;;;22.64;66.99
63837;BME280;49991;50.518;30.486;2022-08-04T00:46:53;99945.34;;;22.67;66.59
63837;BME280;49991;50.518;30.486;2022-08-04T00:49:43;99941.53;;;22.72;66.42
63837;BME280;49991;50.518;30.486;2022-08-04T00:52:24;99942.28;;;22.74;66.37
63837;BME280;49991;50.518;30.486;2022-08-04T00:55:04;99945.69;;;22.76;66.86
63837;BME280;49991;50.518;30.486;2022-08-04T00:57:42;99943.81;;;22.78;66.35
63837;BME280;49991;50.518;30.486;2022-08-04T01:00:17;99944.50;;;22.82;66.26
63837;BME280;49991;50.518;30.486;2022-08-04T01:03:05;99955.97;;;22.83;66.40
63837;BME280;49991;50.518;30.486;2022-08-04T01:05:44;99956.84;;;22.83;66.53
63837;BME280;49991;50.518;30.486;2022-08-04T01:08:26;99955.66;;;22.73;66.63
63837;BME280;49991;50.518;30.486;2022-08-04T01:11:03;99948.16;;;22.49;67.15
63837;BME280;49991;50.518;30.486;2022-08-04T01:13:50;99961.91;;;22.56;67.01
63837;BME280;49991;50.518;30.486;2022-08-04T01:16:25;99955.41;;;22.62;66.61
63837;BME280;49991;50.518;30.486;2022-08-04T01:18:56;99946.47;;;22.63;66.94
63837;BME280;49991;50.518;30.486;2022-08-04T01:24:37;99947.16;;;22.66;66.43
63837;BME280;49991;50.518;30.486;2022-08-04T01:27:10;99956.53;;;22.58;66.88
63837;BME280;49991;50.518;30.486;2022-08-04T01:29:48;99952.06;;;22.58;66.81
63837;BME280;49991;50.518;30.486;2022-08-04T01:32:19;99968.56;;;22.63;66.82
63837;BME280;49991;50.518;30.486;2022-08-04T01:34:49;99968.94;;;22.57;66.92
63837;BME280;49991;50.518;30.486;2022-08-04T01:37:27;99973.22;;;22.44;67.17
63837;BME280;49991;50.518;30.486;2022-08-04T01:40:01;99967.31;;;22.39;67.42
63837;BME280;49991;50.518;30.486;2022-08-04T01:42:31;99967.91;;;22.44;67.64
63837;BME280;49991;50.518;30.486;2022-08-04T01:45:04;99975.47;;;22.51;67.08
63837;BME280;49991;50.518;30.486;2022-08-04T01:47:34;99953.63;;;22.31;67.86
63837;BME280;49991;50.518;30.486;2022-08-04T01:50:05;99969.69;;;22.43;67.56
63837;BME280;49991;50.518;30.486;2022-08-04T01:52:33;99971.78;;;22.38;68.08
63837;BME280;49991;50.518;30.486;2022-08-04T01:55:02;99963.91;;;22.37;67.61
63837;BME280;49991;50.518;30.486;2022-08-04T01:57:31;99960.63;;;22.47;67.29
63837;BME280;49991;50.518;30.486;2022-08-04T02:00:00;99954.81;;;22.41;67.69
63837;BME280;49991;50.518;30.486;2022-08-04T02:02:29;99953.28;;;22.37;67.81
63837;BME280;49991;50.518;30.486;2022-08-04T02:04:56;99956.13;;;22.34;67.75
63837;BME280;49991;50.518;30.486;2022-08-04T02:07:31;99958.41;;;22.40;67.40
63837;BME280;49991;50.518;30.486;2022-08-04T02:10:06;99955.50;;;22.44;67.55
63837;BME280;49991;50.518;30.486;2022-08-04T02:12:51;99953.59;;;22.46;67.49
63837;BME280;49991;50.518;30.486;2022-08-04T02:15:25;99955.31;;;22.47;67.40
63837;BME280;49991;50.518;30.486;2022-08-04T02:17:58;99954.63;;;22.44;67.66
63837;BME280;49991;50.518;30.486;2022-08-04T02:20:29;99953.28;;;22.37;67.85
63837;BME280;49991;50.518;30.486;2022-08-04T02:22:59;99954.81;;;22.41;67.86
63837;BME280;49991;50.518;30.486;2022-08-04T02:25:28;99947.63;;;22.43;67.61
63837;BME280;49991;50.518;30.486;2022-08-04T02:28:12;99921.03;;;22.29;67.88
63837;BME280;49991;50.518;30.486;2022-08-04T02:30:50;99949.41;;;22.42;67.59
63837;BME280;49991;50.518;30.486;2022-08-04T02:33:25;99944.19;;;22.41;67.47
63837;BME280;49991;50.518;30.486;2022-08-04T02:36:00;99953.28;;;22.37;67.91
63837;BME280;49991;50.518;30.486;2022-08-04T02:38:40;99954.13;;;22.37;67.92
63837;BME280;49991;50.518;30.486;2022-08-04T02:41:08;99951.22;;;22.42;68.11
63837;BME280;49991;50.518;30.486;2022-08-04T02:43:35;99949.34;;;22.44;67.66
63837;BME280;49991;50.518;30.486;2022-08-04T02:46:05;99948.16;;;22.49;67.75
63837;BME280;49991;50.518;30.486;2022-08-04T02:48:33;99949.94;;;22.49;67.83
63837;BME280;49991;50.518;30.486;2022-08-04T02:51:02;99944.38;;;22.38;67.70
63837;BME280;49991;50.518;30.486;2022-08-04T02:53:32;99951.91;;;22.45;67.62
63837;BME280;49991;50.518;30.486;2022-08-04T02:56:03;99949.34;;;22.44;67.80
63837;BME280;49991;50.518;30.486;2022-08-04T02:58:35;99951.03;;;22.45;67.73
63837;BME280;49991;50.518;30.486;2022-08-04T03:01:02;99948.31;;;22.46;67.46
63837;BME280;49991;50.518;30.486;2022-08-04T03:03:38;99946.69;;;22.44;67.82
63837;BME280;49991;50.518;30.486;2022-08-04T03:06:34;99947.63;;;22.43;67.58
63837;BME280;49991;50.518;30.486;2022-08-04T03:12:25;99944.19;;;22.41;67.69
63837;BME280;49991;50.518;30.486;2022-08-04T03:18:50;99951.03;;;22.45;67.65
63837;BME280;49991;50.518;30.486;2022-08-04T03:28:11;99955.59;;;22.43;67.96
63837;BME280;49991;50.518;30.486;2022-08-04T03:30:59;99947.31;;;22.33;68.20
63837;BME280;49991;50.518;30.486;2022-08-04T03:33:59;99941.63;;;22.24;68.41
63837;BME280;49991;50.518;30.486;2022-08-04T03:36:53;99944.75;;;22.32;68.38
63837;BME280;49991;50.518;30.486;2022-08-04T03:39:48;99950.63;;;22.37;68.08
63837;BME280;49991;50.518;30.486;2022-08-04T03:45:38;99943.63;;;22.36;68.05
63837;BME280;49991;50.518;30.486;2022-08-04T03:48:39;99960.81;;;22.44;67.75
63837;BME280;49991;50.518;30.486;2022-08-04T03:51:18;99953.59;;;22.46;68.01
63837;BME280;49991;50.518;30.486;2022-08-04T03:54:31;99943.03;;;22.31;67.94
63837;BME280;49991;50.518;30.486;2022-08-04T03:57:25;99957.38;;;22.27;68.39
63837;BME280;49991;50.518;30.486;2022-08-04T04:00:05;99956.88;;;22.36;68.16
63837;BME280;49991;50.518;30.486;2022-08-04T04:03:03;99961.84;;;22.42;68.23
63837;BME280;49991;50.518;30.486;2022-08-04T04:08:49;99965.44;;;22.41;68.28
63837;BME280;49991;50.518;30.486;2022-08-04T04:11:46;99964.66;;;22.39;68.14
63837;BME280;49991;50.518;30.486;2022-08-04T04:14:25;99958.50;;;22.38;68.18
63837;BME280;49991;50.518;30.486;2022-08-04T04:17:10;99974.50;;;22.37;68.12
63837;BME280;49991;50.518;30.486;2022-08-04T04:20:24;99967.13;;;22.42;68.38
63837;BME280;49991;50.518;30.486;2022-08-04T04:22:59;99961.47;;;22.48;67.95
63837;BME280;49991;50.518;30.486;2022-08-04T04:25:45;99971.94;;;22.51;67.99
63837;BME280;49991;50.518;30.486;2022-08-04T04:28:31;99973.66;;;22.52;67.91
63837;BME280;49991;50.518;30.486;2022-08-04T04:31:18;99974.41;;;22.54;67.94
63837;BME280;49991;50.518;30.486;2022-08-04T04:33:57;99969.88;;;22.56;67.90
63837;BME280;49991;50.518;30.486;2022-08-04T04:36:37;99964.75;;;22.53;67.71
63837;BME280;49991;50.518;30.486;2022-08-04T04:39:19;99971.22;;;22.47;68.25
63837;BME280;49991;50.518;30.486;2022-08-04T04:42:06;99973.03;;;22.47;68.17
63837;BME280;49991;50.518;30.486;2022-08-04T04:45:02;99981.34;;;22.41;68.23
63837;BME280;49991;50.518;30.486;2022-08-04T04:47:37;99979.28;;;22.46;68.35
63837;BME280;49991;50.518;30.486;2022-08-04T04:50:13;99977.06;;;22.38;68.33
63837;BME280;49991;50.518;30.486;2022-08-04T04:52:46;99977.44;;;22.32;68.40
63837;BME280;49991;50.518;30.486;2022-08-04T04:55:19;99980.94;;;22.33;68.27
63837;BME280;49991;50.518;30.486;2022-08-04T04:57:50;99975.72;;;22.31;68.43
63837;BME280;49991;50.518;30.486;2022-08-04T05:00:18;99984.19;;;22.38;68.20
63837;BME280;49991;50.518;30.486;2022-08-04T05:03:00;99976.56;;;22.32;68.28
63837;BME280;49991;50.518;30.486;2022-08-04T05:05:42;99983.31;;;22.37;68.40
63837;BME280;49991;50.518;30.486;2022-08-04T05:08:33;99975.38;;;22.37;68.06
63837;BME280;49991;50.518;30.486;2022-08-04T05:11:35;99971.69;;;22.40;68.20
63837;BME280;49991;50.518;30.486;2022-08-04T05:14:11;99976.03;;;22.41;67.99
63837;BME280;49991;50.518;30.486;2022-08-04T05:16:43;99964.84;;;22.36;68.17
63837;BME280;49991;50.518;30.486;2022-08-04T05:19:21;99981.78;;;22.49;68.17
63837;BME280;49991;50.518;30.486;2022-08-04T05:21:56;99989.50;;;22.54;68.22
63837;BME280;49991;50.518;30.486;2022-08-04T05:24:26;99986.84;;;22.54;68.02
63837;BME280;49991;50.518;30.486;2022-08-04T05:26:59;99989.41;;;22.55;67.67
63837;BME280;49991;50.518;30.486;2022-08-04T05:29:32;99994.19;;;22.48;68.09
63837;BME280;49991;50.518;30.486;2022-08-04T05:32:03;99985.34;;;22.48;68.11
63837;BME280;49991;50.518;30.486;2022-08-04T05:34:36;99991.59;;;22.47;68.02
63837;BME280;49991;50.518;30.486;2022-08-04T05:37:08;99990.59;;;22.49;67.93
63837;BME280;49991;50.518;30.486;2022-08-04T05:39:40;99994.25;;;22.47;68.17
63837;BME280;49991;50.518;30.486;2022-08-04T05:42:09;99997.09;;;22.44;68.25
63837;BME280;49991;50.518;30.486;2022-08-04T05:44:39;100000.88;;;22.40;68.34
63837;BME280;49991;50.518;30.486;2022-08-04T05:47:10;100003.06;;;22.47;68.49
63837;BME280;49991;50.518;30.486;2022-08-04T05:49:37;99999.34;;;22.51;68.12
63837;BME280;49991;50.518;30.486;2022-08-04T05:52:06;100008.38;;;22.47;68.21
63837;BME280;49991;50.518;30.486;2022-08-04T05:54:34;100009.88;;;22.53;67.99
63837;BME280;49991;50.518;30.486;2022-08-04T05:57:03;100000.50;;;22.46;68.29
63837;BME280;49991;50.518;30.486;2022-08-04T05:59:31;100008.25;;;22.50;67.94
63837;BME280;49991;50.518;30.486;2022-08-04T06:02:01;100001.72;;;22.56;67.84
63837;BME280;49991;50.518;30.486;2022-08-04T06:04:31;100001.72;;;22.56;68.04
63837;BME280;49991;50.518;30.486;2022-08-04T06:06:58;100001.63;;;22.58;68.17
63837;BME280;49991;50.518;30.486;2022-08-04T06:09:25;100002.84;;;22.52;68.01
63837;BME280;49991;50.518;30.486;2022-08-04T06:11:53;100004.56;;;22.53;67.95
63837;BME280;49991;50.518;30.486;2022-08-04T06:14:23;100004.13;;;22.61;67.95
63837;BME280;49991;50.518;30.486;2022-08-04T06:16:50;100006.16;;;22.71;67.81
63837;BME280;49991;50.518;30.486;2022-08-04T06:19:20;100003.78;;;22.83;67.67
63837;BME280;49991;50.518;30.486;2022-08-04T06:21:53;100009.66;;;22.88;67.31
63837;BME280;49991;50.518;30.486;2022-08-04T06:24:23;100007.97;;;22.87;67.44
63837;BME280;49991;50.518;30.486;2022-08-04T06:26:50;99990.31;;;22.86;67.41
63837;BME280;49991;50.518;30.486;2022-08-04T06:29:19;100006.13;;;23.03;66.64
63837;BME280;49991;50.518;30.486;2022-08-04T06:31:51;100014.50;;;23.11;66.63
63837;BME280;49991;50.518;30.486;2022-08-04T06:34:29;100016.19;;;22.98;66.88
63837;BME280;49991;50.518;30.486;2022-08-04T06:36:57;100012.56;;;22.99;66.68
63837;BME280;49991;50.518;30.486;2022-08-04T06:39:26;100009.16;;;22.97;66.56
63837;BME280;49991;50.518;30.486;2022-08-04T06:41:55;100017.25;;;23.09;66.48
63837;BME280;49991;50.518;30.486;2022-08-04T06:44:23;100009.72;;;23.02;66.77
63837;BME280;49991;50.518;30.486;2022-08-04T06:46:51;99994.75;;;23.01;66.34
63837;BME280;49991;50.518;30.486;2022-08-04T06:49:19;100001.41;;;23.08;66.13
63837;BME280;49991;50.518;30.486;2022-08-04T06:51:48;100007.31;;;23.13;66.05
63837;BME280;49991;50.518;30.486;2022-08-04T06:54:16;99983.75;;;23.07;65.73
63837;BME280;49991;50.518;30.486;2022-08-04T06:56:43;100006.66;;;23.24;65.69
63837;BME280;49991;50.518;30.486;2022-08-04T06:59:11;100008.28;;;23.26;65.64
63837;BME280;49991;50.518;30.486;2022-08-04T07:01:38;100001.63;;;23.19;65.64
63837;BME280;49991;50.518;30.486;2022-08-04T07:04:06;100002.50;;;23.20;65.97
63837;BME280;49991;50.518;30.486;2022-08-04T07:06:33;99991.41;;;23.27;65.88
63837;BME280;49991;50.518;30.486;2022-08-04T07:09:01;99993.09;;;23.28;65.53
63837;BME280;49991;50.518;30.486;2022-08-04T07:11:29;99982.81;;;23.38;65.75
63837;BME280;49991;50.518;30.486;2022-08-04T07:13:56;99985.94;;;23.45;65.38
63837;BME280;49991;50.518;30.486;2022-08-04T07:16:23;99982.03;;;23.50;65.16
63837;BME280;49991;50.518;30.486;2022-08-04T07:18:51;99986.41;;;23.51;65.24
63837;BME280;49991;50.518;30.486;2022-08-04T07:21:21;99993.63;;;23.49;65.21
63837;BME280;49991;50.518;30.486;2022-08-04T07:23:48;99970.94;;;23.43;64.71
63837;BME280;49991;50.518;30.486;2022-08-04T07:26:16;99990.09;;;23.49;64.82
63837;BME280;49991;50.518;30.486;2022-08-04T07:28:44;99994.28;;;23.53;64.66
63837;BME280;49991;50.518;30.486;2022-08-04T07:31:15;99981.19;;;23.50;64.54
63837;BME280;49991;50.518;30.486;2022-08-04T07:33:43;99983.50;;;23.56;64.26
63837;BME280;49991;50.518;30.486;2022-08-04T07:36:11;99983.59;;;23.54;64.05
63837;BME280;49991;50.518;30.486;2022-08-04T07:38:39;99988.66;;;23.59;64.07
63837;BME280;49991;50.518;30.486;2022-08-04T07:41:06;99994.91;;;23.58;64.24
63837;BME280;49991;50.518;30.486;2022-08-04T07:43:36;99994.66;;;23.47;64.03
63837;BME280;49991;50.518;30.486;2022-08-04T07:46:03;99991.91;;;23.48;64.02
63837;BME280;49991;50.518;30.486;2022-08-04T07:48:30;99989.16;;;23.50;63.63
63837;BME280;49991;50.518;30.486;2022-08-04T07:50:57;99987.34;;;23.50;63.69
63837;BME280;49991;50.518;30.486;2022-08-04T07:53:25;99990.56;;;23.57;63.84
63837;BME280;49991;50.518;30.486;2022-08-04T07:55:52;99989.97;;;23.66;63.92
63837;BME280;49991;50.518;30.486;2022-08-04T07:58:20;99989.59;;;23.72;63.41
63837;BME280;49991;50.518;30.486;2022-08-04T08:00:48;99968.09;;;23.47;63.52
63837;BME280;49991;50.518;30.486;2022-08-04T08:03:15;99993.50;;;23.66;62.55
63837;BME280;49991;50.518;30.486;2022-08-04T08:05:42;99999.09;;;23.62;62.92
63837;BME280;49991;50.518;30.486;2022-08-04T08:08:09;100002.22;;;23.68;62.46
63837;BME280;49991;50.518;30.486;2022-08-04T08:10:36;99987.88;;;23.71;62.69
63837;BME280;49991;50.518;30.486;2022-08-04T08:13:04;99987.81;;;23.87;62.42
63837;BME280;49991;50.518;30.486;2022-08-04T08:15:32;99991.63;;;23.97;61.79
63837;BME280;49991;50.518;30.486;2022-08-04T08:18:02;99990.25;;;24.04;61.32
63837;BME280;49991;50.518;30.486;2022-08-04T08:20:30;99995.09;;;24.12;61.04
63837;BME280;49991;50.518;30.486;2022-08-04T08:22:57;99990.34;;;24.17;60.57
63837;BME280;49991;50.518;30.486;2022-08-04T08:25:24;99985.91;;;24.17;60.17
63837;BME280;49991;50.518;30.486;2022-08-04T08:27:51;99994.13;;;24.27;60.37
63837;BME280;49991;50.518;30.486;2022-08-04T08:30:18;100000.78;;;24.34;60.19
63837;BME280;49991;50.518;30.486;2022-08-04T08:32:44;99994.50;;;24.35;60.18
63837;BME280;49991;50.518;30.486;2022-08-04T08:35:12;99989.97;;;24.37;60.22
63837;BME280;49991;50.518;30.486;2022-08-04T08:37:42;99993.38;;;24.39;60.34
63837;BME280;49991;50.518;30.486;2022-08-04T08:40:22;99996.72;;;24.43;59.94
63837;BME280;49991;50.518;30.486;2022-08-04T08:43:15;99986.34;;;24.38;59.69
63837;BME280;49991;50.518;30.486;2022-08-04T08:45:56;99990.44;;;24.44;59.61
63837;BME280;49991;50.518;30.486;2022-08-04T08:48:50;99993.75;;;24.47;59.69
63837;BME280;49991;50.518;30.486;2022-08-04T08:51:30;99990.31;;;24.45;59.57
63837;BME280;49991;50.518;30.486;2022-08-04T08:54:27;99994.28;;;24.52;59.61
63837;BME280;49991;50.518;30.486;2022-08-04T08:57:10;99994.09;;;24.55;59.58
63837;BME280;49991;50.518;30.486;2022-08-04T08:59:49;100000.00;;;24.60;59.41
63837;BME280;49991;50.518;30.486;2022-08-04T09:02:41;99998.28;;;24.59;59.44
63837;BME280;49991;50.518;30.486;2022-08-04T09:05:22;99988.19;;;24.65;59.23
63837;BME280;49991;50.518;30.486;2022-08-04T09:08:04;99984.75;;;24.62;59.10
63837;BME280;49991;50.518;30.486;2022-08-04T09:10:39;99993.84;;;24.73;58.99
63837;BME280;49991;50.518;30.486;2022-08-04T09:13:14;99989.47;;;24.72;58.97
63837;BME280;49991;50.518;30.486;2022-08-04T09:15:46;99996.59;;;24.71;59.10
63837;BME280;49991;50.518;30.486;2022-08-04T09:18:21;99985.84;;;24.73;58.80
63837;BME280;49991;50.518;30.486;2022-08-04T09:20:55;99983.09;;;24.74;58.84
63837;BME280;49991;50.518;30.486;2022-08-04T09:23:35;99980.53;;;24.73;59.17
63837;BME280;49991;50.518;30.486;2022-08-04T09:26:10;99985.25;;;24.82;58.73
63837;BME280;49991;50.518;30.486;2022-08-04T09:28:47;99977.06;;;24.85;58.42
63837;BME280;49991;50.518;30.486;2022-08-04T09:31:20;99983.91;;;24.89;58.43
63837;BME280;49991;50.518;30.486;2022-08-04T09:33:54;99982.72;;;24.93;57.76
63837;BME280;49991;50.518;30.486;2022-08-04T09:36:29;99975.47;;;24.95;57.53
63837;BME280;49991;50.518;30.486;2022-08-04T09:39:06;99981.78;;;24.94;57.28
63837;BME280;49991;50.518;30.486;2022-08-04T09:41:46;99984.13;;;24.99;57.27
63837;BME280;49991;50.518;30.486;2022-08-04T09:44:22;99956.50;;;24.87;57.03
63837;BME280;49991;50.518;30.486;2022-08-04T09:46:58;99977.19;;;24.96;57.04
63837;BME280;49991;50.518;30.486;2022-08-04T09:49:37;99979.22;;;24.92;56.90
63837;BME280;49991;50.518;30.486;2022-08-04T09:52:08;99972.91;;;24.93;57.41
63837;BME280;49991;50.518;30.486;2022-08-04T09:54:47;99983.13;;;25.01;56.79
63837;BME280;49991;50.518;30.486;2022-08-04T09:57:27;99976.41;;;25.08;56.83
63837;BME280;49991;50.518;30.486;2022-08-04T10:00:02;99981.41;;;25.13;57.02
63837;BME280;49991;50.518;30.486;2022-08-04T10:02:40;99980.34;;;25.15;56.85
63837;BME280;49991;50.518;30.486;2022-08-04T10:05:15;99978.25;;;25.20;56.64
63837;BME280;49991;50.518;30.486;2022-08-04T10:07:50;99982.53;;;25.23;56.57
63837;BME280;49991;50.518;30.486;2022-08-04T10:10:32;99976.44;;;25.21;56.38
63837;BME280;49991;50.518;30.486;2022-08-04T10:13:17;99975.78;;;25.17;56.13
63837;BME280;49991;50.518;30.486;2022-08-04T10:15:53;99980.16;;;25.18;56.17
63837;BME280;49991;50.518;30.486;2022-08-04T10:18:42;99980.34;;;25.15;56.12
63837;BME280;49991;50.518;30.486;2022-08-04T10:21:17;99987.28;;;25.18;56.39
63837;BME280;49991;50.518;30.486;2022-08-04T10:24:00;99987.09;;;25.21;56.33
63837;BME280;49991;50.518;30.486;2022-08-04T10:26:44;99972.16;;;25.18;56.61
63837;BME280;49991;50.518;30.486;2022-08-04T10:29:15;99981.56;;;25.24;56.64
63837;BME280;49991;50.518;30.486;2022-08-04T10:31:47;99968.63;;;25.18;56.61
63837;BME280;49991;50.518;30.486;2022-08-04T10:34:20;99984.44;;;25.21;56.88
63837;BME280;49991;50.518;30.486;2022-08-04T10:36:52;99979.19;;;25.19;57.03
63837;BME280;49991;50.518;30.486;2022-08-04T10:39:28;99975.13;;;25.14;57.04
63837;BME280;49991;50.518;30.486;2022-08-04T10:42:06;99966.28;;;25.13;57.04
63837;BME280;49991;50.518;30.486;2022-08-04T10:44:46;99967.13;;;25.14;57.24
63837;BME280;49991;50.518;30.486;2022-08-04T10:47:18;99964.38;;;25.15;57.43
63837;BME280;49991;50.518;30.486;2022-08-04T10:49:49;99944.88;;;25.15;57.12
63837;BME280;49991;50.518;30.486;2022-08-04T10:52:25;99939.66;;;25.13;57.19
63837;BME280;49991;50.518;30.486;2022-08-04T10:55:01;99949.78;;;25.21;56.82
63837;BME280;49991;50.518;30.486;2022-08-04T10:57:35;99959.91;;;25.29;57.04
63837;BME280;49991;50.518;30.486;2022-08-04T11:00:05;99937.31;;;25.21;57.10
63837;BME280;49991;50.518;30.486;2022-08-04T11:02:39;99950.97;;;25.30;56.64
63837;BME280;49991;50.518;30.486;2022-08-04T11:05:16;99947.34;;;25.31;56.71
63837;BME280;49991;50.518;30.486;2022-08-04T11:07:48;99946.38;;;25.32;56.93
63837;BME280;49991;50.518;30.486;2022-08-04T11:10:18;99953.63;;;25.30;56.67
63837;BME280;49991;50.518;30.486;2022-08-04T11:12:53;99947.44;;;25.29;56.72
63837;BME280;49991;50.518;30.486;2022-08-04T11:15:24;99954.59;;;25.29;56.91
63837;BME280;49991;50.518;30.486;2022-08-04T11:17:56;99948.31;;;25.30;56.73
63837;BME280;49991;50.518;30.486;2022-08-04T11:20:28;99951.72;;;25.32;56.70
63837;BME280;49991;50.518;30.486;2022-08-04T11:23:02;99939.97;;;25.34;56.83
63837;BME280;49991;50.518;30.486;2022-08-04T11:25:31;99942.66;;;25.34;56.70
63837;BME280;49991;50.518;30.486;2022-08-04T11:28:07;99939.88;;;25.36;56.97
63837;BME280;49991;50.518;30.486;2022-08-04T11:30:40;99949.03;;;25.32;58.30
63837;BME280;49991;50.518;30.486;2022-08-04T11:33:16;99943.94;;;25.29;59.27
63837;BME280;49991;50.518;30.486;2022-08-04T11:35:51;99937.09;;;25.25;59.39
63837;BME280;49991;50.518;30.486;2022-08-04T11:38:26;99944.34;;;25.22;60.35
63837;BME280;49991;50.518;30.486;2022-08-04T11:40:57;99933.88;;;25.19;59.49
63837;BME280;49991;50.518;30.486;2022-08-04T11:43:42;99933.03;;;25.19;60.11
63837;BME280;49991;50.518;30.486;2022-08-04T11:46:14;99929.34;;;25.21;60.74
63837;BME280;49991;50.518;30.486;2022-08-04T11:48:47;99929.50;;;25.18;60.32
63837;BME280;49991;50.518;30.486;2022-08-04T11:51:18;99921.19;;;25.10;60.17
63837;BME280;49991;50.518;30.486;2022-08-04T11:53:47;99928.97;;;25.13;60.07
63837;BME280;49991;50.518;30.486;2022-08-04T11:56:14;99919.19;;;25.14;59.36
63837;BME280;49991;50.518;30.486;2022-08-04T11:58:42;99918.78;;;25.20;59.82
63837;BME280;49991;50.518;30.486;2022-08-04T12:01:14;99927.09;;;25.28;59.49
63837;BME280;49991;50.518;30.486;2022-08-04T12:03:51;99918.34;;;25.26;59.23
63837;BME280;49991;50.518;30.486;2022-08-04T12:06:29;99929.00;;;25.26;59.51
63837;BME280;49991;50.518;30.486;2022-08-04T12:09:08;99926.97;;;25.30;59.96
63837;BME280;49991;50.518;30.486;2022-08-04T12:11:45;99932.19;;;25.31;60.53
63837;BME280;49991;50.518;30.486;2022-08-04T12:14:25;99948.41;;;25.28;60.59
63837;BME280;49991;50.518;30.486;2022-08-04T12:16:57;99954.56;;;25.03;61.46
63837;BME280;49991;50.518;30.486;2022-08-04T12:19:29;99960.97;;;24.86;61.48
63837;BME280;49991;50.518;30.486;2022-08-04T12:21:58;99954.09;;;24.70;62.36
63837;BME280;49991;50.518;30.486;2022-08-04T12:24:32;99962.84;;;24.72;63.62
63837;BME280;49991;50.518;30.486;2022-08-04T12:27:05;99961.44;;;24.66;63.69
63837;BME280;49991;50.518;30.486;2022-08-04T12:29:39;99960.81;;;24.62;63.67
63837;BME280;49991;50.518;30.486;2022-08-04T12:32:15;99958.63;;;24.55;63.93
63837;BME280;49991;50.518;30.486;2022-08-04T12:34:48;99952.84;;;24.48;63.64
63837;BME280;49991;50.518;30.486;2022-08-04T12:37:24;99937.00;;;24.47;63.09
63837;BME280;49991;50.518;30.486;2022-08-04T12:39:53;99934.97;;;24.50;62.93
63837;BME280;49991;50.518;30.486;2022-08-04T12:42:23;99914.53;;;24.51;63.08
63837;BME280;49991;50.518;30.486;2022-08-04T12:44:56;99911.56;;;24.55;63.80
63837;BME280;49991;50.518;30.486;2022-08-04T12:47:26;99888.31;;;24.45;63.97
63837;BME280;49991;50.518;30.486;2022-08-04T12:49:58;99915.19;;;24.54;64.86
63837;BME280;49991;50.518;30.486;2022-08-04T12:52:28;99911.75;;;24.52;64.82
63837;BME280;49991;50.518;30.486;2022-08-04T12:54:56;99917.28;;;24.49;65.52
63837;BME280;49991;50.518;30.486;2022-08-04T12:57:24;99921.56;;;24.52;66.48
63837;BME280;49991;50.518;30.486;2022-08-04T12:59:53;99916.22;;;24.52;66.50
63837;BME280;49991;50.518;30.486;2022-08-04T13:02:23;99911.75;;;24.52;66.20
63837;BME280;49991;50.518;30.486;2022-08-04T13:04:52;99916.88;;;24.55;66.21
63837;BME280;49991;50.518;30.486;2022-08-04T13:07:22;99918.78;;;24.53;65.81
63837;BME280;49991;50.518;30.486;2022-08-04T13:09:50;99905.03;;;24.47;65.79
63837;BME280;49991;50.518;30.486;2022-08-04T13:12:19;99924.97;;;24.54;66.14
63837;BME280;49991;50.518;30.486;2022-08-04T13:14:49;99929.66;;;24.50;65.82
63837;BME280;49991;50.518;30.486;2022-08-04T13:17:18;99935.06;;;24.49;65.68
63837;BME280;49991;50.518;30.486;2022-08-04T13:19:46;99926.00;;;24.39;66.01
63837;BME280;49991;50.518;30.486;2022-08-04T13:22:22;99936.44;;;24.42;66.03
63837;BME280;49991;50.518;30.486;2022-08-04T13:24:50;99940.91;;;24.41;66.27
63837;BME280;49991;50.518;30.486;2022-08-04T13:27:19;99946.13;;;24.43;66.25
63837;BME280;49991;50.518;30.486;2022-08-04T13:29:49;99943.78;;;24.38;66.62
63837;BME280;49991;50.518;30.486;2022-08-04T13:32:19;99940.44;;;24.35;66.90
63837;BME280;49991;50.518;30.486;2022-08-04T13:34:49;99943.19;;;24.33;67.16
63837;BME280;49991;50.518;30.486;2022-08-04T13:37:18;99934.47;;;24.31;67.02
63837;BME280;49991;50.518;30.486;2022-08-04T13:39:48;99939.78;;;24.31;67.32
63837;BME280;49991;50.518;30.486;2022-08-04T13:42:15;99937.13;;;24.31;68.30
63837;BME280;49991;50.518;30.486;2022-08-04T13:44:46;99939.09;;;24.27;67.97
63837;BME280;49991;50.518;30.486;2022-08-04T13:47:15;99950.69;;;24.26;67.92